sensor_id;sensor_type;location;lat;lon;timestamp;temperature;humidity
16503;DHT22;53067;48.114;11.694;2023-02-28T00:01:23;0.20;71.30
16503;DHT22;53067;48.114;11.694;2023-02-28T00:03:50;0.20;71.30
16503;DHT22;53067;48.114;11.694;2023-02-28T00:06:18;0.10;71.40
16503;DHT22;53067;48.114;11.694;2023-02-28T00:08:46;0.10;71.60
16503;DHT22;53067;48.114;11.694;2023-02-28T00:11:14;0.10;71.50
16503;DHT22;53067;48.114;11.694;2023-02-28T00:13:45;0.10;71.40
16503;DHT22;53067;48.114;11.694;2023-02-28T00:16:20;0.10;71.40
16503;DHT22;53067;48.114;11.694;2023-02-28T00:18:48;0.00;71.20
16503;DHT22;53067;48.114;11.694;2023-02-28T00:21:17;0.00;71.30
16503;DHT22;53067;48.114;11.694;2023-02-28T00:23:45;0.00;71.40
16503;DHT22;53067;48.114;11.694;2023-02-28T00:26:12;0.00;71.40
16503;DHT22;53067;48.114;11.694;2023-02-28T00:28:40;0.20;71.40
16503;DHT22;53067;48.114;11.694;2023-02-28T00:31:07;0.00;71.10
16503;DHT22;53067;48.114;11.694;2023-02-28T00:33:35;-0.10;71.00
16503;DHT22;53067;48.114;11.694;2023-02-28T00:36:08;-0.10;71.30
16503;DHT22;53067;48.114;11.694;2023-02-28T00:38:37;-0.10;71.40
16503;DHT22;53067;48.114;11.694;2023-02-28T00:41:05;-0.10;71.40
16503;DHT22;53067;48.114;11.694;2023-02-28T00:43:33;-0.20;71.50
16503;DHT22;53067;48.114;11.694;2023-02-28T00:46:02;-0.20;71.70
16503;DHT22;53067;48.114;11.694;2023-02-28T00:48:30;-0.20;71.70
16503;DHT22;53067;48.114;11.694;2023-02-28T00:50:57;-0.20;71.50
16503;DHT22;53067;48.114;11.694;2023-02-28T00:53:25;-0.20;71.50
16503;DHT22;53067;48.114;11.694;2023-02-28T00:55:53;-0.20;71.80
16503;DHT22;53067;48.114;11.694;2023-02-28T00:58:20;-0.20;71.80
16503;DHT22;53067;48.114;11.694;2023-02-28T01:00:48;-0.30;71.60
16503;DHT22;53067;48.114;11.694;2023-02-28T01:03:17;-0.30;71.70
16503;DHT22;53067;48.114;11.694;2023-02-28T01:05:45;-0.30;71.80
16503;DHT22;53067;48.114;11.694;2023-02-28T01:08:14;-0.30;71.90
16503;DHT22;53067;48.114;11.694;2023-02-28T01:10:41;-0.30;72.00
16503;DHT22;53067;48.114;11.694;2023-02-28T01:13:09;-0.30;72.10
16503;DHT22;53067;48.114;11.694;2023-02-28T01:15:39;-0.30;72.00
16503;DHT22;53067;48.114;11.694;2023-02-28T01:18:07;-0.40;72.00
16503;DHT22;53067;48.114;11.694;2023-02-28T01:20:37;-0.30;72.00
16503;DHT22;53067;48.114;11.694;2023-02-28T01:23:05;-0.40;72.20
16503;DHT22;53067;48.114;11.694;2023-02-28T01:25:34;-0.30;72.40
16503;DHT22;53067;48.114;11.694;2023-02-28T01:28:03;-0.40;72.30
16503;DHT22;53067;48.114;11.694;2023-02-28T01:30:31;-0.30;72.30
16503;DHT22;53067;48.114;11.694;2023-02-28T01:32:59;-0.30;72.10
16503;DHT22;53067;48.114;11.694;2023-02-28T01:35:27;-0.40;72.10
16503;DHT22;53067;48.114;11.694;2023-02-28T01:37:54;-0.40;72.20
16503;DHT22;53067;48.114;11.694;2023-02-28T01:40:22;-0.40;72.50
16503;DHT22;53067;48.114;11.694;2023-02-28T01:42:50;-0.40;72.20
16503;DHT22;53067;48.114;11.694;2023-02-28T01:45:28;-0.40;72.20
16503;DHT22;53067;48.114;11.694;2023-02-28T01:47:58;-0.40;72.20
16503;DHT22;53067;48.114;11.694;2023-02-28T01:50:29;-0.50;72.40
16503;DHT22;53067;48.114;11.694;2023-02-28T01:52:59;-0.50;72.60
16503;DHT22;53067;48.114;11.694;2023-02-28T01:55:28;-0.50;72.80
16503;DHT22;53067;48.114;11.694;2023-02-28T01:57:59;-0.50;72.80
16503;DHT22;53067;48.114;11.694;2023-02-28T02:00:29;-0.70;72.60
16503;DHT22;53067;48.114;11.694;2023-02-28T02:02:59;-0.50;72.80
16503;DHT22;53067;48.114;11.694;2023-02-28T02:05:30;-0.50;72.90
16503;DHT22;53067;48.114;11.694;2023-02-28T02:08:03;-0.50;72.90
16503;DHT22;53067;48.114;11.694;2023-02-28T02:10:38;-0.50;73.00
16503;DHT22;53067;48.114;11.694;2023-02-28T02:13:33;-0.50;72.90
16503;DHT22;53067;48.114;11.694;2023-02-28T02:21:47;-0.60;72.80
16503;DHT22;53067;48.114;11.694;2023-02-28T02:30:08;-0.70;73.20
16503;DHT22;53067;48.114;11.694;2023-02-28T02:35:24;-0.70;73.40
16503;DHT22;53067;48.114;11.694;2023-02-28T02:40:35;-0.80;73.50
16503;DHT22;53067;48.114;11.694;2023-02-28T02:43:11;-0.80;73.60
16503;DHT22;53067;48.114;11.694;2023-02-28T02:45:45;-0.80;73.80
16503;DHT22;53067;48.114;11.694;2023-02-28T02:48:18;-0.80;73.90
16503;DHT22;53067;48.114;11.694;2023-02-28T02:50:52;-0.80;73.80
16503;DHT22;53067;48.114;11.694;2023-02-28T02:53:23;-0.80;73.90
16503;DHT22;53067;48.114;11.694;2023-02-28T02:58:41;-0.80;73.90
16503;DHT22;53067;48.114;11.694;2023-02-28T03:01:12;-0.90;73.90
16503;DHT22;53067;48.114;11.694;2023-02-28T03:03:40;-0.90;74.00
16503;DHT22;53067;48.114;11.694;2023-02-28T03:06:07;-0.90;74.00
16503;DHT22;53067;48.114;11.694;2023-02-28T03:08:37;-0.90;74.00
16503;DHT22;53067;48.114;11.694;2023-02-28T03:11:07;-0.90;73.90
16503;DHT22;53067;48.114;11.694;2023-02-28T03:13:52;-0.90;74.00
16503;DHT22;53067;48.114;11.694;2023-02-28T03:18:57;-1.00;74.10
16503;DHT22;53067;48.114;11.694;2023-02-28T03:21:38;-1.00;74.20
16503;DHT22;53067;48.114;11.694;2023-02-28T03:24:08;-1.00;74.30
16503;DHT22;53067;48.114;11.694;2023-02-28T03:26:39;-1.00;74.40
16503;DHT22;53067;48.114;11.694;2023-02-28T03:29:21;-1.00;74.50
16503;DHT22;53067;48.114;11.694;2023-02-28T03:31:58;-1.00;74.60
16503;DHT22;53067;48.114;11.694;2023-02-28T03:34:36;-1.00;74.70
16503;DHT22;53067;48.114;11.694;2023-02-28T03:37:07;-1.00;74.60
16503;DHT22;53067;48.114;11.694;2023-02-28T03:39:42;-1.00;74.60
16503;DHT22;53067;48.114;11.694;2023-02-28T03:42:18;-1.00;74.60
16503;DHT22;53067;48.114;11.694;2023-02-28T03:44:52;-1.00;74.90
16503;DHT22;53067;48.114;11.694;2023-02-28T03:47:22;-1.00;74.80
16503;DHT22;53067;48.114;11.694;2023-02-28T03:52:40;-1.00;74.90
16503;DHT22;53067;48.114;11.694;2023-02-28T03:55:10;-1.00;74.90
16503;DHT22;53067;48.114;11.694;2023-02-28T03:57:59;-1.00;74.90
16503;DHT22;53067;48.114;11.694;2023-02-28T04:00:37;-1.00;75.10
16503;DHT22;53067;48.114;11.694;2023-02-28T04:03:01;-1.10;75.20
16503;DHT22;53067;48.114;11.694;2023-02-28T04:06:04;-1.10;75.30
16503;DHT22;53067;48.114;11.694;2023-02-28T04:08:07;-1.00;75.20
16503;DHT22;53067;48.114;11.694;2023-02-28T04:10:35;-1.10;75.10
16503;DHT22;53067;48.114;11.694;2023-02-28T04:13:02;-1.10;75.20
16503;DHT22;53067;48.114;11.694;2023-02-28T04:15:30;-1.10;75.40
16503;DHT22;53067;48.114;11.694;2023-02-28T04:17:58;-1.10;75.60
16503;DHT22;53067;48.114;11.694;2023-02-28T04:20:25;-1.10;75.70
16503;DHT22;53067;48.114;11.694;2023-02-28T04:22:53;-1.10;75.90
16503;DHT22;53067;48.114;11.694;2023-02-28T04:25:20;-1.10;76.00
16503;DHT22;53067;48.114;11.694;2023-02-28T04:27:48;-1.10;76.00
16503;DHT22;53067;48.114;11.694;2023-02-28T04:30:16;-1.10;76.20
16503;DHT22;53067;48.114;11.694;2023-02-28T04:32:43;-1.10;76.30
16503;DHT22;53067;48.114;11.694;2023-02-28T04:35:11;-1.10;76.30
16503;DHT22;53067;48.114;11.694;2023-02-28T04:37:38;-1.10;76.30
16503;DHT22;53067;48.114;11.694;2023-02-28T04:40:25;-1.10;76.50
16503;DHT22;53067;48.114;11.694;2023-02-28T04:42:53;-1.00;76.30
16503;DHT22;53067;48.114;11.694;2023-02-28T04:45:20;-1.00;76.60
16503;DHT22;53067;48.114;11.694;2023-02-28T04:47:48;-1.00;76.70
16503;DHT22;53067;48.114;11.694;2023-02-28T04:50:15;-0.90;77.00
16503;DHT22;53067;48.114;11.694;2023-02-28T04:52:43;-0.90;76.90
16503;DHT22;53067;48.114;11.694;2023-02-28T04:55:10;-0.80;76.90
16503;DHT22;53067;48.114;11.694;2023-02-28T04:57:38;-0.80;76.90
16503;DHT22;53067;48.114;11.694;2023-02-28T05:02:54;-0.80;76.90
16503;DHT22;53067;48.114;11.694;2023-02-28T05:05:21;-0.80;76.90
16503;DHT22;53067;48.114;11.694;2023-02-28T05:07:49;-0.70;77.10
16503;DHT22;53067;48.114;11.694;2023-02-28T05:10:17;-0.70;77.30
16503;DHT22;53067;48.114;11.694;2023-02-28T05:12:44;-0.70;77.30
16503;DHT22;53067;48.114;11.694;2023-02-28T05:15:13;-0.70;77.20
16503;DHT22;53067;48.114;11.694;2023-02-28T05:17:41;-0.70;77.50
16503;DHT22;53067;48.114;11.694;2023-02-28T05:22:58;-0.60;77.40
16503;DHT22;53067;48.114;11.694;2023-02-28T05:25:26;-0.50;77.40
16503;DHT22;53067;48.114;11.694;2023-02-28T05:27:54;-0.50;77.40
16503;DHT22;53067;48.114;11.694;2023-02-28T05:30:21;-0.50;77.40
16503;DHT22;53067;48.114;11.694;2023-02-28T05:32:51;-0.40;77.40
16503;DHT22;53067;48.114;11.694;2023-02-28T05:35:19;-0.40;77.40
16503;DHT22;53067;48.114;11.694;2023-02-28T05:37:46;-0.30;77.30
16503;DHT22;53067;48.114;11.694;2023-02-28T05:40:14;-0.20;77.20
16503;DHT22;53067;48.114;11.694;2023-02-28T05:42:42;-0.20;77.00
16503;DHT22;53067;48.114;11.694;2023-02-28T05:45:10;-0.10;76.90
16503;DHT22;53067;48.114;11.694;2023-02-28T05:47:38;-0.10;76.70
16503;DHT22;53067;48.114;11.694;2023-02-28T05:50:08;-0.10;76.50
16503;DHT22;53067;48.114;11.694;2023-02-28T05:52:37;-0.10;76.40
16503;DHT22;53067;48.114;11.694;2023-02-28T05:55:05;0.00;76.50
16503;DHT22;53067;48.114;11.694;2023-02-28T05:57:32;0.00;76.40
16503;DHT22;53067;48.114;11.694;2023-02-28T06:00:00;0.00;76.50
16503;DHT22;53067;48.114;11.694;2023-02-28T06:02:27;0.00;76.50
16503;DHT22;53067;48.114;11.694;2023-02-28T06:04:55;0.10;76.30
16503;DHT22;53067;48.114;11.694;2023-02-28T06:07:22;0.10;76.00
16503;DHT22;53067;48.114;11.694;2023-02-28T06:09:50;0.10;75.70
16503;DHT22;53067;48.114;11.694;2023-02-28T06:12:17;0.10;75.60
16503;DHT22;53067;48.114;11.694;2023-02-28T06:14:45;0.10;75.70
16503;DHT22;53067;48.114;11.694;2023-02-28T06:17:12;0.10;75.40
16503;DHT22;53067;48.114;11.694;2023-02-28T06:19:40;0.10;75.40
16503;DHT22;53067;48.114;11.694;2023-02-28T06:22:07;0.20;75.70
16503;DHT22;53067;48.114;11.694;2023-02-28T06:24:35;0.20;75.40
16503;DHT22;53067;48.114;11.694;2023-02-28T06:27:02;0.20;75.20
16503;DHT22;53067;48.114;11.694;2023-02-28T06:29:32;0.20;75.20
16503;DHT22;53067;48.114;11.694;2023-02-28T06:32:00;0.30;75.10
16503;DHT22;53067;48.114;11.694;2023-02-28T06:34:28;0.30;74.90
16503;DHT22;53067;48.114;11.694;2023-02-28T06:36:55;0.30;75.00
16503;DHT22;53067;48.114;11.694;2023-02-28T06:39:23;0.30;74.80
16503;DHT22;53067;48.114;11.694;2023-02-28T06:41:51;0.30;74.80
16503;DHT22;53067;48.114;11.694;2023-02-28T06:44:19;0.30;74.80
16503;DHT22;53067;48.114;11.694;2023-02-28T06:46:47;0.40;74.80
16503;DHT22;53067;48.114;11.694;2023-02-28T06:49:14;0.30;74.50
16503;DHT22;53067;48.114;11.694;2023-02-28T06:51:43;0.30;74.70
16503;DHT22;53067;48.114;11.694;2023-02-28T06:54:14;0.30;74.60
16503;DHT22;53067;48.114;11.694;2023-02-28T06:56:41;0.40;74.80
16503;DHT22;53067;48.114;11.694;2023-02-28T06:59:09;0.40;74.80
16503;DHT22;53067;48.114;11.694;2023-02-28T07:01:36;0.40;74.30
16503;DHT22;53067;48.114;11.694;2023-02-28T07:04:06;0.40;74.50
16503;DHT22;53067;48.114;11.694;2023-02-28T07:06:33;0.40;74.30
16503;DHT22;53067;48.114;11.694;2023-02-28T07:09:01;0.40;74.30
16503;DHT22;53067;48.114;11.694;2023-02-28T07:11:30;0.40;74.20
16503;DHT22;53067;48.114;11.694;2023-02-28T07:13:58;0.40;74.30
16503;DHT22;53067;48.114;11.694;2023-02-28T07:16:27;0.40;74.50
16503;DHT22;53067;48.114;11.694;2023-02-28T07:18:55;0.50;74.40
16503;DHT22;53067;48.114;11.694;2023-02-28T07:21:22;0.50;74.40
16503;DHT22;53067;48.114;11.694;2023-02-28T07:23:50;0.60;74.50
16503;DHT22;53067;48.114;11.694;2023-02-28T07:26:19;0.60;74.00
16503;DHT22;53067;48.114;11.694;2023-02-28T07:28:48;0.60;73.80
16503;DHT22;53067;48.114;11.694;2023-02-28T07:31:16;0.60;73.60
16503;DHT22;53067;48.114;11.694;2023-02-28T07:33:44;0.60;73.80
16503;DHT22;53067;48.114;11.694;2023-02-28T07:36:14;0.70;73.80
16503;DHT22;53067;48.114;11.694;2023-02-28T07:38:45;0.70;73.90
16503;DHT22;53067;48.114;11.694;2023-02-28T07:41:16;0.60;73.50
16503;DHT22;53067;48.114;11.694;2023-02-28T07:43:44;0.60;73.20
16503;DHT22;53067;48.114;11.694;2023-02-28T07:46:13;0.60;73.50
16503;DHT22;53067;48.114;11.694;2023-02-28T07:48:43;0.60;73.90
16503;DHT22;53067;48.114;11.694;2023-02-28T07:51:11;0.60;73.80
16503;DHT22;53067;48.114;11.694;2023-02-28T07:53:38;0.70;73.40
16503;DHT22;53067;48.114;11.694;2023-02-28T07:56:06;0.70;73.90
16503;DHT22;53067;48.114;11.694;2023-02-28T07:58:34;0.80;73.50
16503;DHT22;53067;48.114;11.694;2023-02-28T08:01:09;0.90;73.40
16503;DHT22;53067;48.114;11.694;2023-02-28T08:03:37;1.00;73.10
16503;DHT22;53067;48.114;11.694;2023-02-28T08:06:06;1.00;72.90
16503;DHT22;53067;48.114;11.694;2023-02-28T08:08:34;0.90;72.60
16503;DHT22;53067;48.114;11.694;2023-02-28T08:11:03;0.90;72.60
16503;DHT22;53067;48.114;11.694;2023-02-28T08:13:31;1.00;72.40
16503;DHT22;53067;48.114;11.694;2023-02-28T08:16:00;1.10;72.40
16503;DHT22;53067;48.114;11.694;2023-02-28T08:18:27;1.00;72.00
16503;DHT22;53067;48.114;11.694;2023-02-28T08:20:55;1.00;72.10
16503;DHT22;53067;48.114;11.694;2023-02-28T08:23:23;1.00;72.10
16503;DHT22;53067;48.114;11.694;2023-02-28T08:25:57;1.00;72.40
16503;DHT22;53067;48.114;11.694;2023-02-28T08:28:24;1.00;72.40
16503;DHT22;53067;48.114;11.694;2023-02-28T08:30:52;1.10;72.50
16503;DHT22;53067;48.114;11.694;2023-02-28T08:33:20;1.10;72.00
16503;DHT22;53067;48.114;11.694;2023-02-28T08:35:47;1.10;71.90
16503;DHT22;53067;48.114;11.694;2023-02-28T08:38:15;1.10;71.80
16503;DHT22;53067;48.114;11.694;2023-02-28T08:40:42;1.10;72.10
16503;DHT22;53067;48.114;11.694;2023-02-28T08:43:10;1.10;72.20
16503;DHT22;53067;48.114;11.694;2023-02-28T08:45:37;1.10;72.00
16503;DHT22;53067;48.114;11.694;2023-02-28T08:48:05;1.20;71.80
16503;DHT22;53067;48.114;11.694;2023-02-28T08:50:32;1.30;72.00
16503;DHT22;53067;48.114;11.694;2023-02-28T08:53:00;1.20;71.90
16503;DHT22;53067;48.114;11.694;2023-02-28T08:55:27;1.30;71.90
16503;DHT22;53067;48.114;11.694;2023-02-28T08:57:55;1.40;72.00
16503;DHT22;53067;48.114;11.694;2023-02-28T09:00:23;1.40;71.90
16503;DHT22;53067;48.114;11.694;2023-02-28T09:02:50;1.40;71.90
16503;DHT22;53067;48.114;11.694;2023-02-28T09:05:18;1.40;71.80
16503;DHT22;53067;48.114;11.694;2023-02-28T09:07:45;1.50;71.60
16503;DHT22;53067;48.114;11.694;2023-02-28T09:10:13;1.50;71.40
16503;DHT22;53067;48.114;11.694;2023-02-28T09:12:40;1.60;71.30
16503;DHT22;53067;48.114;11.694;2023-02-28T09:15:08;1.60;70.90
16503;DHT22;53067;48.114;11.694;2023-02-28T09:17:36;1.50;70.60
16503;DHT22;53067;48.114;11.694;2023-02-28T09:20:04;1.50;70.40
16503;DHT22;53067;48.114;11.694;2023-02-28T09:22:32;1.50;70.50
16503;DHT22;53067;48.114;11.694;2023-02-28T09:24:59;1.50;70.50
16503;DHT22;53067;48.114;11.694;2023-02-28T09:27:27;1.50;70.60
16503;DHT22;53067;48.114;11.694;2023-02-28T09:29:54;1.50;70.50
16503;DHT22;53067;48.114;11.694;2023-02-28T09:32:22;1.50;70.20
16503;DHT22;53067;48.114;11.694;2023-02-28T09:34:49;1.50;70.40
16503;DHT22;53067;48.114;11.694;2023-02-28T09:37:17;1.50;70.70
16503;DHT22;53067;48.114;11.694;2023-02-28T09:39:44;1.50;70.60
16503;DHT22;53067;48.114;11.694;2023-02-28T09:42:22;1.60;70.50
16503;DHT22;53067;48.114;11.694;2023-02-28T09:44:47;1.60;70.90
16503;DHT22;53067;48.114;11.694;2023-02-28T09:47:40;1.70;70.60
16503;DHT22;53067;48.114;11.694;2023-02-28T09:52:56;1.70;70.50
16503;DHT22;53067;48.114;11.694;2023-02-28T09:55:37;1.80;70.40
16503;DHT22;53067;48.114;11.694;2023-02-28T09:58:01;1.90;69.70
16503;DHT22;53067;48.114;11.694;2023-02-28T10:00:32;1.80;69.80
16503;DHT22;53067;48.114;11.694;2023-02-28T10:08:31;1.90;70.00
16503;DHT22;53067;48.114;11.694;2023-02-28T10:11:01;2.00;69.80
16503;DHT22;53067;48.114;11.694;2023-02-28T10:16:18;2.10;68.90
16503;DHT22;53067;48.114;11.694;2023-02-28T10:21:35;2.20;68.60
16503;DHT22;53067;48.114;11.694;2023-02-28T10:24:19;2.30;68.30
16503;DHT22;53067;48.114;11.694;2023-02-28T10:26:47;2.50;67.70
16503;DHT22;53067;48.114;11.694;2023-02-28T10:29:15;2.50;66.30
16503;DHT22;53067;48.114;11.694;2023-02-28T10:31:43;2.60;66.60
16503;DHT22;53067;48.114;11.694;2023-02-28T10:34:12;2.60;66.70
16503;DHT22;53067;48.114;11.694;2023-02-28T10:36:41;2.80;66.80
16503;DHT22;53067;48.114;11.694;2023-02-28T10:42:04;3.10;66.60
16503;DHT22;53067;48.114;11.694;2023-02-28T10:44:33;3.30;65.20
16503;DHT22;53067;48.114;11.694;2023-02-28T10:47:00;3.50;64.70
16503;DHT22;53067;48.114;11.694;2023-02-28T10:49:29;3.70;65.10
16503;DHT22;53067;48.114;11.694;2023-02-28T10:51:59;3.90;63.60
16503;DHT22;53067;48.114;11.694;2023-02-28T10:54:36;4.00;63.30
16503;DHT22;53067;48.114;11.694;2023-02-28T10:59:50;4.30;63.60
16503;DHT22;53067;48.114;11.694;2023-02-28T11:02:32;4.40;62.80
16503;DHT22;53067;48.114;11.694;2023-02-28T11:05:00;4.40;62.30
16503;DHT22;53067;48.114;11.694;2023-02-28T11:07:27;4.40;62.10
16503;DHT22;53067;48.114;11.694;2023-02-28T11:09:57;4.30;62.80
16503;DHT22;53067;48.114;11.694;2023-02-28T11:12:38;4.20;62.00
16503;DHT22;53067;48.114;11.694;2023-02-28T11:15:31;4.20;62.30
16503;DHT22;53067;48.114;11.694;2023-02-28T11:18:24;4.10;62.60
16503;DHT22;53067;48.114;11.694;2023-02-28T11:20:53;4.10;62.90
16503;DHT22;53067;48.114;11.694;2023-02-28T11:23:24;4.10;63.60
16503;DHT22;53067;48.114;11.694;2023-02-28T11:25:56;4.10;63.40
16503;DHT22;53067;48.114;11.694;2023-02-28T11:28:32;4.00;63.00
16503;DHT22;53067;48.114;11.694;2023-02-28T11:31:02;4.00;63.50
16503;DHT22;53067;48.114;11.694;2023-02-28T11:33:32;4.10;64.10
16503;DHT22;53067;48.114;11.694;2023-02-28T11:36:16;4.20;63.90
16503;DHT22;53067;48.114;11.694;2023-02-28T11:38:35;4.20;63.40
16503;DHT22;53067;48.114;11.694;2023-02-28T11:41:08;4.20;63.10
16503;DHT22;53067;48.114;11.694;2023-02-28T11:43:43;4.30;63.30
16503;DHT22;53067;48.114;11.694;2023-02-28T11:46:20;4.40;62.70
16503;DHT22;53067;48.114;11.694;2023-02-28T11:49:10;4.60;62.70
16503;DHT22;53067;48.114;11.694;2023-02-28T11:51:35;4.90;62.40
16503;DHT22;53067;48.114;11.694;2023-02-28T11:56:39;6.00;58.70
16503;DHT22;53067;48.114;11.694;2023-02-28T12:10:57;11.90;43.80
16503;DHT22;53067;48.114;11.694;2023-02-28T12:13:25;12.90;41.30
16503;DHT22;53067;48.114;11.694;2023-02-28T12:16:15;13.50;39.70
16503;DHT22;53067;48.114;11.694;2023-02-28T12:19:02;14.20;38.50
16503;DHT22;53067;48.114;11.694;2023-02-28T12:21:48;14.40;37.00
16503;DHT22;53067;48.114;11.694;2023-02-28T12:24:39;15.30;35.30
16503;DHT22;53067;48.114;11.694;2023-02-28T12:27:07;16.20;33.40
16503;DHT22;53067;48.114;11.694;2023-02-28T12:32:44;15.10;33.80
16503;DHT22;53067;48.114;11.694;2023-02-28T12:35:18;13.80;35.80
16503;DHT22;53067;48.114;11.694;2023-02-28T12:37:50;13.10;37.40
16503;DHT22;53067;48.114;11.694;2023-02-28T12:40:25;12.20;39.40
16503;DHT22;53067;48.114;11.694;2023-02-28T12:43:04;11.40;40.70
16503;DHT22;53067;48.114;11.694;2023-02-28T12:48:08;12.70;39.80
16503;DHT22;53067;48.114;11.694;2023-02-28T12:50:37;12.40;40.20
16503;DHT22;53067;48.114;11.694;2023-02-28T12:53:08;11.90;40.00
16503;DHT22;53067;48.114;11.694;2023-02-28T12:55:48;11.50;40.30
16503;DHT22;53067;48.114;11.694;2023-02-28T13:09:21;9.60;46.00
16503;DHT22;53067;48.114;11.694;2023-02-28T13:11:50;9.30;46.10
16503;DHT22;53067;48.114;11.694;2023-02-28T13:14:35;9.00;46.80
16503;DHT22;53067;48.114;11.694;2023-02-28T13:19:40;8.30;48.70
16503;DHT22;53067;48.114;11.694;2023-02-28T13:22:16;8.10;48.70
16503;DHT22;53067;48.114;11.694;2023-02-28T13:24:51;7.80;50.00
16503;DHT22;53067;48.114;11.694;2023-02-28T13:27:23;7.50;50.30
16503;DHT22;53067;48.114;11.694;2023-02-28T13:29:54;7.40;50.70
16503;DHT22;53067;48.114;11.694;2023-02-28T13:32:30;7.30;50.90
16503;DHT22;53067;48.114;11.694;2023-02-28T13:37:33;7.10;52.00
16503;DHT22;53067;48.114;11.694;2023-02-28T13:40:28;7.10;52.50
16503;DHT22;53067;48.114;11.694;2023-02-28T13:42:56;7.00;53.10
16503;DHT22;53067;48.114;11.694;2023-02-28T13:45:28;7.00;52.90
16503;DHT22;53067;48.114;11.694;2023-02-28T13:48:14;7.00;53.20
16503;DHT22;53067;48.114;11.694;2023-02-28T13:50:33;7.00;53.20
16503;DHT22;53067;48.114;11.694;2023-02-28T13:58:53;6.90;53.50
16503;DHT22;53067;48.114;11.694;2023-02-28T14:02:02;6.90;53.50
16503;DHT22;53067;48.114;11.694;2023-02-28T14:07:07;6.90;53.60
16503;DHT22;53067;48.114;11.694;2023-02-28T14:09:38;6.90;53.40
16503;DHT22;53067;48.114;11.694;2023-02-28T14:18:05;6.70;54.20
16503;DHT22;53067;48.114;11.694;2023-02-28T14:20:33;6.50;54.40
16503;DHT22;53067;48.114;11.694;2023-02-28T14:28:40;6.60;55.00
16503;DHT22;53067;48.114;11.694;2023-02-28T14:36:48;6.50;54.80
16503;DHT22;53067;48.114;11.694;2023-02-28T14:39:21;6.40;55.60
16503;DHT22;53067;48.114;11.694;2023-02-28T14:41:49;6.40;55.40
16503;DHT22;53067;48.114;11.694;2023-02-28T14:44:22;6.40;55.50
16503;DHT22;53067;48.114;11.694;2023-02-28T14:47:01;6.30;54.90
16503;DHT22;53067;48.114;11.694;2023-02-28T14:49:37;6.30;55.20
16503;DHT22;53067;48.114;11.694;2023-02-28T14:52:07;6.30;55.60
16503;DHT22;53067;48.114;11.694;2023-02-28T14:54:37;6.30;55.90
16503;DHT22;53067;48.114;11.694;2023-02-28T14:57:05;6.30;55.40
16503;DHT22;53067;48.114;11.694;2023-02-28T14:59:35;6.30;55.30
16503;DHT22;53067;48.114;11.694;2023-02-28T15:02:24;6.30;55.40
16503;DHT22;53067;48.114;11.694;2023-02-28T15:04:57;6.20;55.70
16503;DHT22;53067;48.114;11.694;2023-02-28T15:07:25;6.10;55.90
16503;DHT22;53067;48.114;11.694;2023-02-28T15:12:57;6.00;56.40
16503;DHT22;53067;48.114;11.694;2023-02-28T15:15:39;6.00;56.80
16503;DHT22;53067;48.114;11.694;2023-02-28T15:18:04;6.00;56.80
16503;DHT22;53067;48.114;11.694;2023-02-28T15:20:33;6.00;56.70
16503;DHT22;53067;48.114;11.694;2023-02-28T15:23:02;6.00;57.10
16503;DHT22;53067;48.114;11.694;2023-02-28T15:25:29;6.00;56.50
16503;DHT22;53067;48.114;11.694;2023-02-28T15:27:58;6.00;56.70
16503;DHT22;53067;48.114;11.694;2023-02-28T15:30:31;6.00;56.90
16503;DHT22;53067;48.114;11.694;2023-02-28T15:33:20;6.00;56.90
16503;DHT22;53067;48.114;11.694;2023-02-28T15:35:47;5.90;57.40
16503;DHT22;53067;48.114;11.694;2023-02-28T15:38:18;5.80;57.10
16503;DHT22;53067;48.114;11.694;2023-02-28T15:40:54;5.70;57.40
16503;DHT22;53067;48.114;11.694;2023-02-28T15:43:32;5.80;57.70
16503;DHT22;53067;48.114;11.694;2023-02-28T15:46:08;5.80;58.00
16503;DHT22;53067;48.114;11.694;2023-02-28T15:48:54;5.70;57.80
16503;DHT22;53067;48.114;11.694;2023-02-28T15:51:33;5.60;58.00
16503;DHT22;53067;48.114;11.694;2023-02-28T15:54:05;5.60;58.20
16503;DHT22;53067;48.114;11.694;2023-02-28T15:56:42;5.50;57.90
16503;DHT22;53067;48.114;11.694;2023-02-28T15:59:07;5.50;58.30
16503;DHT22;53067;48.114;11.694;2023-02-28T16:01:36;5.40;58.00
16503;DHT22;53067;48.114;11.694;2023-02-28T16:04:11;5.40;58.30
16503;DHT22;53067;48.114;11.694;2023-02-28T16:06:42;5.40;58.80
16503;DHT22;53067;48.114;11.694;2023-02-28T16:09:17;5.40;58.70
16503;DHT22;53067;48.114;11.694;2023-02-28T16:11:47;5.30;58.80
16503;DHT22;53067;48.114;11.694;2023-02-28T16:14:17;5.30;59.00
16503;DHT22;53067;48.114;11.694;2023-02-28T16:16:48;5.30;59.20
16503;DHT22;53067;48.114;11.694;2023-02-28T16:19:15;5.30;59.30
16503;DHT22;53067;48.114;11.694;2023-02-28T16:21:43;5.20;59.40
16503;DHT22;53067;48.114;11.694;2023-02-28T16:24:11;5.20;59.50
16503;DHT22;53067;48.114;11.694;2023-02-28T16:26:40;5.10;59.70
16503;DHT22;53067;48.114;11.694;2023-02-28T16:29:11;5.10;59.90
16503;DHT22;53067;48.114;11.694;2023-02-28T16:31:39;5.10;59.90
16503;DHT22;53067;48.114;11.694;2023-02-28T16:34:07;5.00;60.20
16503;DHT22;53067;48.114;11.694;2023-02-28T16:36:34;5.00;60.30
16503;DHT22;53067;48.114;11.694;2023-02-28T16:39:02;4.90;60.30
16503;DHT22;53067;48.114;11.694;2023-02-28T16:41:29;5.00;61.00
16503;DHT22;53067;48.114;11.694;2023-02-28T16:43:59;4.90;61.10
16503;DHT22;53067;48.114;11.694;2023-02-28T16:46:36;4.90;61.50
16503;DHT22;53067;48.114;11.694;2023-02-28T16:49:03;4.80;61.50
16503;DHT22;53067;48.114;11.694;2023-02-28T16:51:31;4.80;61.70
16503;DHT22;53067;48.114;11.694;2023-02-28T16:53:59;4.70;62.40
16503;DHT22;53067;48.114;11.694;2023-02-28T16:56:26;4.70;61.90
16503;DHT22;53067;48.114;11.694;2023-02-28T16:58:55;4.60;62.00
16503;DHT22;53067;48.114;11.694;2023-02-28T17:01:24;4.60;62.30
16503;DHT22;53067;48.114;11.694;2023-02-28T17:03:53;4.60;62.60
16503;DHT22;53067;48.114;11.694;2023-02-28T17:06:24;4.50;62.80
16503;DHT22;53067;48.114;11.694;2023-02-28T17:08:52;4.50;63.00
16503;DHT22;53067;48.114;11.694;2023-02-28T17:11:20;4.40;63.20
16503;DHT22;53067;48.114;11.694;2023-02-28T17:13:48;4.40;63.60
16503;DHT22;53067;48.114;11.694;2023-02-28T17:16:30;4.40;63.60
16503;DHT22;53067;48.114;11.694;2023-02-28T17:19:01;4.30;63.90
16503;DHT22;53067;48.114;11.694;2023-02-28T17:21:29;4.20;64.20
16503;DHT22;53067;48.114;11.694;2023-02-28T17:23:57;4.20;64.60
16503;DHT22;53067;48.114;11.694;2023-02-28T17:26:25;4.10;64.90
16503;DHT22;53067;48.114;11.694;2023-02-28T17:28:56;4.10;65.00
16503;DHT22;53067;48.114;11.694;2023-02-28T17:31:25;4.10;65.30
16503;DHT22;53067;48.114;11.694;2023-02-28T17:33:53;4.00;65.70
16503;DHT22;53067;48.114;11.694;2023-02-28T17:36:24;4.00;65.90
16503;DHT22;53067;48.114;11.694;2023-02-28T17:38:53;4.00;67.00
16503;DHT22;53067;48.114;11.694;2023-02-28T17:41:22;4.00;66.30